Time;durP1;ratioP1;P1;durP2;ratioP2;P2;SDS_P1;SDS_P2;PMS_P1;PMS_P2;Temp;Humidity;BMP_temperature;BMP_pressure;BME280_temperature;BME280_humidity;BME280_pressure;Samples;Min_cycle;Max_cycle;Signal;HPM_P1;HPM_P2
2022/03/18 00:00:24;;;;;;;20.05;7.78;;;;;;;;;;4838759;29;20060;-90
2022/03/18 00:02:52;;;;;;;26.23;8.48;;;;;;;;;;4825478;29;20046;-87
2022/03/18 00:05:19;;;;;;;19.38;7.25;;;;;;;;;;4825466;29;20050;-90
2022/03/18 00:07:45;;;;;;;23.38;8.20;;;;;;;;;;4826414;29;20065;-88
2022/03/18 00:10:12;;;;;;;22.25;7.15;;;;;;;;;;4822878;29;20064;-88
2022/03/18 00:13:04;;;;;;;24.88;7.85;;;;;;;;;;4823815;29;20081;-90
2022/03/18 00:15:30;;;;;;;26.48;8.43;;;;;;;;;;4817832;29;20096;-89
2022/03/18 00:17:57;;;;;;;20.88;8.20;;;;;;;;;;4823646;29;20053;-91
2022/03/18 00:20:34;;;;;;;23.00;8.30;;;;;;;;;;4816766;29;20054;-91
2022/03/18 00:23:00;;;;;;;23.40;8.05;;;;;;;;;;4802378;29;20068;-90
2022/03/18 00:25:29;;;;;;;30.63;8.85;;;;;;;;;;4818829;29;20057;-89
2022/03/18 00:27:55;;;;;;;25.02;8.40;;;;;;;;;;4809969;29;20099;-90
2022/03/18 00:30:22;;;;;;;28.77;9.70;;;;;;;;;;4814916;29;20061;-90
2022/03/18 00:32:51;;;;;;;25.58;9.13;;;;;;;;;;4829046;29;20055;-89
2022/03/18 00:35:17;;;;;;;21.42;8.38;;;;;;;;;;4823199;29;20152;-87
2022/03/18 00:37:43;;;;;;;25.48;10.55;;;;;;;;;;4826786;29;20118;-85
2022/03/18 00:40:10;;;;;;;22.10;8.70;;;;;;;;;;4826198;29;20142;-86
2022/03/18 00:42:36;;;;;;;26.10;8.70;;;;;;;;;;4821084;29;20054;-82
2022/03/18 00:45:04;;;;;;;26.48;9.93;;;;;;;;;;4835945;29;20057;-83
2022/03/18 00:53:00;;;;;;;23.98;9.02;;;;;;;;;;4835788;29;20061;-85
2022/03/18 00:55:26;;;;;;;29.33;10.40;;;;;;;;;;4826630;29;20049;-84
2022/03/18 00:57:52;;;;;;;24.10;8.82;;;;;;;;;;4815207;29;20441;-84
2022/03/18 01:00:18;;;;;;;20.25;8.82;;;;;;;;;;4824749;29;20128;-84
2022/03/18 01:02:44;;;;;;;24.00;10.32;;;;;;;;;;4822220;29;20052;-84
2022/03/18 01:05:10;;;;;;;24.63;9.73;;;;;;;;;;4811409;29;20045;-83
2022/03/18 01:07:36;;;;;;;27.58;9.02;;;;;;;;;;4819938;29;20054;-84
2022/03/18 01:10:04;;;;;;;24.65;9.43;;;;;;;;;;4816874;29;20045;-84
2022/03/18 01:12:30;;;;;;;24.50;8.90;;;;;;;;;;4835772;29;20398;-83
2022/03/18 01:14:56;;;;;;;22.98;9.55;;;;;;;;;;4818561;29;20064;-83
2022/03/18 01:17:22;;;;;;;19.38;9.20;;;;;;;;;;4836370;29;20049;-83
2022/03/18 01:19:48;;;;;;;25.10;10.35;;;;;;;;;;4838359;29;20061;-83
2022/03/18 01:22:14;;;;;;;30.15;11.07;;;;;;;;;;4842894;29;20467;-82
2022/03/18 01:24:40;;;;;;;25.83;9.85;;;;;;;;;;4815708;29;20057;-83
2022/03/18 01:27:07;;;;;;;23.95;9.60;;;;;;;;;;4808275;29;20053;-83
2022/03/18 01:29:33;;;;;;;29.55;10.30;;;;;;;;;;4822644;29;20049;-83
2022/03/18 01:32:00;;;;;;;27.67;10.38;;;;;;;;;;4822297;29;20057;-83
2022/03/18 01:34:26;;;;;;;26.20;10.98;;;;;;;;;;4808578;29;20117;-83
2022/03/18 01:36:52;;;;;;;26.20;10.82;;;;;;;;;;4836225;29;20456;-83
2022/03/18 01:39:18;;;;;;;30.17;11.15;;;;;;;;;;4822318;29;20057;-83
2022/03/18 01:41:44;;;;;;;26.05;11.52;;;;;;;;;;4825557;29;20113;-84
2022/03/18 01:44:11;;;;;;;23.63;11.15;;;;;;;;;;4828364;29;20088;-84
2022/03/18 01:46:37;;;;;;;23.35;10.88;;;;;;;;;;4825538;29;20046;-85
2022/03/18 01:49:04;;;;;;;23.63;11.13;;;;;;;;;;4811937;29;20053;-83
2022/03/18 01:51:30;;;;;;;31.50;11.40;;;;;;;;;;4829251;29;20049;-83
2022/03/18 01:56:41;;;;;;;20.70;10.50;;;;;;;;;;4827915;29;20052;-84
2022/03/18 01:59:08;;;;;;;26.25;10.95;;;;;;;;;;4827693;29;20038;-84
2022/03/18 02:01:35;;;;;;;27.73;11.45;;;;;;;;;;4825606;29;20076;-82
2022/03/18 02:04:01;;;;;;;27.05;11.27;;;;;;;;;;4840906;29;20060;-83
2022/03/18 02:06:27;;;;;;;21.42;10.73;;;;;;;;;;4817343;29;20406;-84
2022/03/18 02:08:54;;;;;;;27.75;9.90;;;;;;;;;;4839357;29;20506;-83
2022/03/18 02:11:20;;;;;;;28.30;10.60;;;;;;;;;;4826231;29;20045;-83
2022/03/18 02:13:49;;;;;;;27.75;11.18;;;;;;;;;;4837778;29;20060;-82
2022/03/18 02:16:15;;;;;;;24.85;11.15;;;;;;;;;;4825198;29;20101;-83
2022/03/18 02:18:41;;;;;;;19.73;9.73;;;;;;;;;;4811325;29;20140;-83
2022/03/18 02:21:08;;;;;;;24.30;10.93;;;;;;;;;;4807376;29;20050;-83
2022/03/18 02:23:34;;;;;;;28.10;11.63;;;;;;;;;;4797116;29;20060;-83
2022/03/18 02:26:00;;;;;;;20.88;11.25;;;;;;;;;;4838215;29;20073;-83
2022/03/18 02:28:26;;;;;;;23.17;10.50;;;;;;;;;;4811647;29;20394;-82
2022/03/18 02:30:52;;;;;;;27.30;11.88;;;;;;;;;;4821831;29;20523;-83
2022/03/18 02:33:19;;;;;;;25.85;11.68;;;;;;;;;;4821316;29;20064;-83
2022/03/18 02:35:45;;;;;;;29.77;11.80;;;;;;;;;;4810245;29;20232;-83
2022/03/18 02:38:11;;;;;;;29.52;11.38;;;;;;;;;;4822976;29;20150;-76
2022/03/18 02:40:37;;;;;;;24.88;12.32;;;;;;;;;;4825276;29;20042;-76
2022/03/18 02:43:03;;;;;;;23.95;11.57;;;;;;;;;;4824746;29;20149;-75
2022/03/18 02:45:31;;;;;;;28.80;11.68;;;;;;;;;;4825062;29;20486;-76
2022/03/18 02:47:57;;;;;;;21.15;11.45;;;;;;;;;;4825166;29;20046;-77
2022/03/18 02:50:23;;;;;;;24.83;12.15;;;;;;;;;;4824400;29;20050;-76
2022/03/18 02:52:49;;;;;;;28.73;11.88;;;;;;;;;;4840325;29;20050;-77
2022/03/18 02:55:16;;;;;;;27.98;11.73;;;;;;;;;;4824209;29;20414;-77
2022/03/18 02:57:42;;;;;;;20.73;9.55;;;;;;;;;;4824113;29;20137;-77
2022/03/18 03:00:08;;;;;;;23.42;10.68;;;;;;;;;;4809251;29;20046;-76
2022/03/18 03:02:34;;;;;;;26.23;11.73;;;;;;;;;;4810665;29;20057;-76
2022/03/18 03:08:00;;;;;;;26.63;11.90;;;;;;;;;;4827654;29;20140;-77
2022/03/18 03:10:33;;;;;;;23.45;10.40;;;;;;;;;;4824834;29;20098;-76
2022/03/18 03:13:03;;;;;;;24.52;12.18;;;;;;;;;;4809712;29;20509;-76
2022/03/18 03:15:29;;;;;;;30.95;11.02;;;;;;;;;;4821768;29;20053;-76
2022/03/18 03:17:55;;;;;;;23.05;11.45;;;;;;;;;;4809184;29;20057;-77
2022/03/18 03:20:22;;;;;;;23.40;11.48;;;;;;;;;;4824136;29;20061;-76
2022/03/18 03:22:48;;;;;;;28.63;11.48;;;;;;;;;;4824453;29;20136;-77
2022/03/18 03:25:14;;;;;;;21.48;10.95;;;;;;;;;;4823801;29;20385;-77
2022/03/18 03:27:40;;;;;;;18.20;10.57;;;;;;;;;;4823751;29;20332;-77
2022/03/18 03:30:08;;;;;;;28.20;11.65;;;;;;;;;;4822197;29;20054;-76
2022/03/18 03:32:34;;;;;;;24.88;11.13;;;;;;;;;;4822942;29;20058;-77
2022/03/18 03:35:00;;;;;;;27.88;12.50;;;;;;;;;;4823267;29;20053;-77
2022/03/18 03:37:27;;;;;;;26.77;12.27;;;;;;;;;;4822937;29;20049;-77
2022/03/18 03:39:54;;;;;;;23.35;12.65;;;;;;;;;;4808782;29;20135;-77
2022/03/18 03:42:20;;;;;;;27.13;12.43;;;;;;;;;;4823872;29;20132;-77
2022/03/18 03:44:46;;;;;;;29.67;13.50;;;;;;;;;;4809065;29;20114;-77
2022/03/18 03:47:13;;;;;;;24.65;13.30;;;;;;;;;;4823640;29;20045;-77
2022/03/18 03:49:39;;;;;;;29.48;14.30;;;;;;;;;;4823474;29;20085;-77
2022/03/18 03:52:08;;;;;;;26.92;14.15;;;;;;;;;;4823713;29;20050;-76
2022/03/18 03:54:34;;;;;;;22.70;13.38;;;;;;;;;;4823927;29;20054;-76
2022/03/18 03:57:00;;;;;;;28.27;14.90;;;;;;;;;;4808229;29;20106;-77
2022/03/18 03:59:26;;;;;;;26.67;14.38;;;;;;;;;;4822553;29;20050;-77
2022/03/18 04:01:52;;;;;;;31.20;14.55;;;;;;;;;;4823029;29;20487;-77
2022/03/18 04:04:18;;;;;;;26.95;15.63;;;;;;;;;;4808635;29;20053;-77
2022/03/18 04:06:44;;;;;;;35.10;14.98;;;;;;;;;;4826493;29;20050;-76
2022/03/18 04:09:11;;;;;;;32.92;15.65;;;;;;;;;;4826366;29;20053;-76
2022/03/18 04:11:37;;;;;;;31.65;16.70;;;;;;;;;;4826040;29;20058;-77
2022/03/18 04:14:03;;;;;;;29.50;15.93;;;;;;;;;;4827026;29;20085;-79
2022/03/18 04:16:29;;;;;;;26.27;15.70;;;;;;;;;;4826319;29;20399;-77
2022/03/18 04:18:55;;;;;;;23.13;14.93;;;;;;;;;;4826146;29;20064;-77
2022/03/18 04:21:21;;;;;;;26.35;14.80;;;;;;;;;;4811947;29;20069;-76
2022/03/18 04:23:47;;;;;;;21.33;14.60;;;;;;;;;;4812537;29;20049;-77
2022/03/18 04:26:13;;;;;;;26.40;14.70;;;;;;;;;;4811629;29;20057;-76
2022/03/18 04:28:39;;;;;;;27.55;14.75;;;;;;;;;;4826185;29;20050;-77
2022/03/18 04:31:05;;;;;;;30.83;14.18;;;;;;;;;;4825846;29;20089;-77
2022/03/18 04:33:31;;;;;;;26.80;14.43;;;;;;;;;;4826036;29;20132;-77
2022/03/18 04:35:57;;;;;;;28.67;13.93;;;;;;;;;;4811497;29;20125;-77
2022/03/18 04:38:23;;;;;;;22.52;13.02;;;;;;;;;;4826841;29;20049;-77
2022/03/18 04:40:50;;;;;;;25.75;13.88;;;;;;;;;;4843545;29;20119;-77
2022/03/18 04:43:16;;;;;;;26.05;13.13;;;;;;;;;;4811400;29;20046;-76
2022/03/18 04:45:42;;;;;;;27.90;14.77;;;;;;;;;;4826115;29;20338;-77
2022/03/18 04:48:08;;;;;;;24.00;13.80;;;;;;;;;;4825803;29;20140;-76
2022/03/18 04:50:34;;;;;;;29.30;14.82;;;;;;;;;;4825326;29;20057;-76
2022/03/18 04:53:00;;;;;;;25.40;14.98;;;;;;;;;;4811891;29;20064;-76
2022/03/18 04:55:26;;;;;;;22.85;13.98;;;;;;;;;;4810981;29;20054;-76
2022/03/18 04:57:52;;;;;;;27.35;14.73;;;;;;;;;;4825591;29;20145;-76
2022/03/18 05:00:20;;;;;;;25.58;12.77;;;;;;;;;;4825082;29;20053;-76
2022/03/18 05:02:46;;;;;;;23.52;12.95;;;;;;;;;;4825626;29;20068;-77
2022/03/18 05:05:17;;;;;;;22.77;12.82;;;;;;;;;;4825658;29;20042;-76
2022/03/18 05:07:47;;;;;;;21.65;11.80;;;;;;;;;;4825675;29;20072;-77
2022/03/18 05:10:13;;;;;;;22.30;12.75;;;;;;;;;;4825057;29;20046;-77
2022/03/18 05:12:39;;;;;;;25.65;12.18;;;;;;;;;;4826054;29;20054;-77
2022/03/18 05:15:06;;;;;;;20.77;12.07;;;;;;;;;;4811219;29;20455;-77
2022/03/18 05:17:32;;;;;;;23.33;12.10;;;;;;;;;;4825331;29;20347;-77
2022/03/18 05:19:58;;;;;;;23.10;12.23;;;;;;;;;;4826337;29;20424;-77
2022/03/18 05:22:24;;;;;;;23.98;12.32;;;;;;;;;;4810802;29;20210;-77
2022/03/18 05:24:50;;;;;;;24.50;12.45;;;;;;;;;;4826294;29;20129;-78
2022/03/18 05:27:17;;;;;;;26.85;11.55;;;;;;;;;;4825248;29;20050;-77
2022/03/18 05:29:44;;;;;;;32.05;12.80;;;;;;;;;;4824749;29;20488;-77
2022/03/18 05:32:11;;;;;;;23.08;12.40;;;;;;;;;;4825232;29;20069;-76
2022/03/18 05:34:38;;;;;;;22.83;12.85;;;;;;;;;;4825053;29;20448;-77
2022/03/18 05:37:07;;;;;;;22.85;12.73;;;;;;;;;;4825674;29;20062;-77
2022/03/18 05:39:34;;;;;;;22.33;13.77;;;;;;;;;;4825289;29;20089;-76
2022/03/18 05:42:00;;;;;;;27.67;12.68;;;;;;;;;;4825742;29;20054;-77
2022/03/18 05:44:26;;;;;;;22.48;13.27;;;;;;;;;;4824399;29;20157;-78
2022/03/18 05:46:52;;;;;;;25.50;13.85;;;;;;;;;;4840401;29;20204;-79
2022/03/18 05:49:18;;;;;;;25.35;13.63;;;;;;;;;;4824031;29;20049;-80
2022/03/18 05:51:45;;;;;;;22.88;12.77;;;;;;;;;;4810360;29;20472;-80
2022/03/18 05:54:12;;;;;;;26.13;13.52;;;;;;;;;;4810884;29;20057;-80
2022/03/18 05:56:53;;;;;;;19.42;13.23;;;;;;;;;;4809945;29;20086;-80
2022/03/18 05:59:23;;;;;;;22.50;12.90;;;;;;;;;;4822517;29;20490;-79
2022/03/18 06:01:50;;;;;;;24.33;13.52;;;;;;;;;;4805766;29;20089;-79
2022/03/18 06:04:16;;;;;;;22.00;12.40;;;;;;;;;;4819706;29;20060;-76
2022/03/18 06:06:44;;;;;;;20.17;13.07;;;;;;;;;;4821034;29;20046;-77
2022/03/18 06:12:15;;;;;;;24.58;12.52;;;;;;;;;;4764069;30;20487;-78
2022/03/18 06:14:41;;;;;;;24.30;14.60;;;;;;;;;;4764743;30;20569;-75
2022/03/18 06:17:07;;;;;;;28.88;14.00;;;;;;;;;;4791181;29;20521;-76
2022/03/18 06:19:34;;;;;;;24.75;13.60;;;;;;;;;;4805079;29;20050;-77
2022/03/18 06:22:00;;;;;;;22.80;12.88;;;;;;;;;;4805684;29;20054;-78
2022/03/18 06:24:28;;;;;;;19.38;12.07;;;;;;;;;;4807303;29;20064;-78
2022/03/18 06:26:54;;;;;;;20.15;12.23;;;;;;;;;;4808549;29;20054;-78
2022/03/18 06:29:20;;;;;;;16.85;11.30;;;;;;;;;;4806739;29;20129;-78
2022/03/18 06:31:46;;;;;;;15.88;10.57;;;;;;;;;;4824028;29;20045;-79
2022/03/18 06:34:12;;;;;;;22.35;11.23;;;;;;;;;;4809058;29;20072;-79
2022/03/18 06:36:39;;;;;;;20.05;11.73;;;;;;;;;;4822779;29;20163;-79
2022/03/18 06:39:06;;;;;;;18.27;10.23;;;;;;;;;;4823680;29;20046;-79
2022/03/18 06:41:32;;;;;;;26.35;12.55;;;;;;;;;;4807965;29;20118;-79
2022/03/18 06:43:58;;;;;;;;;;;;;;;;;;4824669;29;20504;-79
2022/03/18 06:46:24;;;;;;;;;;;;;;;;;;4824286;29;19936;-78
2022/03/18 06:48:50;;;;;;;18.88;10.75;;;;;;;;;;4823765;29;19979;-79
2022/03/18 06:51:16;;;;;;;20.85;10.30;;;;;;;;;;4809239;29;20057;-80
2022/03/18 06:53:42;;;;;;;20.05;10.25;;;;;;;;;;4805741;29;20049;-80
2022/03/18 06:56:09;;;;;;;20.83;10.52;;;;;;;;;;4822107;29;20082;-81
2022/03/18 06:58:35;;;;;;;17.45;10.82;;;;;;;;;;4806267;29;20279;-79
2022/03/18 07:01:02;;;;;;;14.27;9.20;;;;;;;;;;4806823;29;20046;-80
2022/03/18 07:03:28;;;;;;;;;;;;;;;;;;4821866;29;20135;-79
2022/03/18 07:05:54;;;;;;;;;;;;;;;;;;4807524;29;20353;-80
2022/03/18 07:08:20;;;;;;;;;;;;;;;;;;4806650;29;20437;-78
2022/03/18 07:10:46;;;;;;;;;;;;;;;;;;4823185;29;20024;-78
2022/03/18 07:13:12;;;;;;;;;;;;;;;;;;4824834;29;20365;-77
2022/03/18 07:15:38;;;;;;;;;;;;;;;;;;4823328;29;20156;-78
2022/03/18 07:18:04;;;;;;;;;;;;;;;;;;4807581;29;19928;-77
2022/03/18 07:20:30;;;;;;;;;;;;;;;;;;4823995;29;19924;-77
2022/03/18 07:22:56;;;;;;;;;;;;;;;;;;4822817;29;20300;-78
2022/03/18 07:25:22;;;;;;;;;;;;;;;;;;4807286;29;19997;-78
2022/03/18 07:27:48;;;;;;;;;;;;;;;;;;4821828;29;19931;-79
2022/03/18 07:30:14;;;;;;;;;;;;;;;;;;4822982;29;19947;-78
2022/03/18 07:32:39;;;;;;;;;;;;;;;;;;4806325;29;20017;-78
2022/03/18 07:35:05;;;;;;;;;;;;;;;;;;4806405;29;19925;-78
2022/03/18 07:37:32;;;;;;;;;;;;;;;;;;4806289;29;19931;-78
2022/03/18 07:39:58;;;;;;;;;;;;;;;;;;4823428;29;19924;-78
2022/03/18 07:42:24;;;;;;;;;;;;;;;;;;4806218;29;19977;-78
2022/03/18 07:44:49;;;;;;;;;;;;;;;;;;4806841;29;19972;-78
2022/03/18 07:47:15;;;;;;;;;;;;;;;;;;4822111;29;19931;-79
2022/03/18 07:49:41;;;;;;;;;;;;;;;;;;4822522;29;19932;-78
2022/03/18 07:52:07;;;;;;;;;;;;;;;;;;4807071;29;19925;-79
2022/03/18 07:54:33;;;;;;;;;;;;;;;;;;4806471;29;19924;-79
2022/03/18 07:56:59;;;;;;;;;;;;;;;;;;4805873;29;19940;-78
2022/03/18 07:59:25;;;;;;;;;;;;;;;;;;4805616;29;19947;-78
2022/03/18 08:01:51;;;;;;;;;;;;;;;;;;4805637;29;20114;-79
2022/03/18 08:04:17;;;;;;;;;;;;;;;;;;4806240;29;20091;-79
2022/03/18 08:06:43;;;;;;;;;;;;;;;;;;4821330;29;20380;-77
2022/03/18 08:09:09;;;;;;;;;;;;;;;;;;4822498;29;19931;-79
2022/03/18 08:11:35;;;;;;;;;;;;;;;;;;4820090;29;19924;-80
2022/03/18 08:14:01;;;;;;;;;;;;;;;;;;4821944;29;19947;-79
2022/03/18 08:16:27;;;;;;;;;;;;;;;;;;4822218;29;19933;-80
2022/03/18 08:18:56;;;;;;;;;;;;;;;;;;4821767;29;19934;-82
2022/03/18 08:21:22;;;;;;;;;;;;;;;;;;4822283;29;19924;-78
2022/03/18 08:23:48;;;;;;;;;;;;;;;;;;4821666;29;19938;-80
2022/03/18 08:26:14;;;;;;;;;;;;;;;;;;4806830;29;19928;-80
2022/03/18 08:28:43;;;;;;;;;;;;;;;;;;4805933;29;19925;-80
2022/03/18 08:31:08;;;;;;;;;;;;;;;;;;4806241;29;19924;-79
2022/03/18 08:33:35;;;;;;;;;;;;;;;;;;4821009;29;19958;-80
2022/03/18 08:36:01;;;;;;;;;;;;;;;;;;4806928;29;19930;-80
2022/03/18 08:38:27;;;;;;;;;;;;;;;;;;4808550;29;20011;-80
2022/03/18 08:40:53;;;;;;;;;;;;;;;;;;4808838;29;19924;-80
2022/03/18 08:43:19;;;;;;;;;;;;;;;;;;4822949;29;20015;-80
2022/03/18 08:45:45;;;;;;;;;;;;;;;;;;4821679;29;19935;-81
2022/03/18 08:48:11;;;;;;;;;;;;;;;;;;4809170;29;20405;-80
2022/03/18 08:50:37;;;;;;;;;;;;;;;;;;4823913;29;19925;-80
2022/03/18 08:53:09;;;;;;;;;;;;;;;;;;4812787;29;19930;-80
2022/03/18 08:55:35;;;;;;;;;;;;;;;;;;4827217;29;19924;-80
2022/03/18 08:58:01;;;;;;;;;;;;;;;;;;4811503;29;19931;-79
2022/03/18 09:00:27;;;;;;;;;;;;;;;;;;4826134;29;19977;-80
2022/03/18 09:02:53;;;;;;;;;;;;;;;;;;4826366;29;20415;-79
2022/03/18 09:05:19;;;;;;;;;;;;;;;;;;4826316;29;19967;-80
2022/03/18 09:07:46;;;;;;;;;;;;;;;;;;4826590;29;19928;-80
2022/03/18 09:10:12;;;;;;;;;;;;;;;;;;4811885;29;19977;-80
2022/03/18 09:12:38;;;;;;;;;;;;;;;;;;4811523;29;19928;-80
2022/03/18 09:15:04;;;;;;;;;;;;;;;;;;4826618;29;19934;-80
2022/03/18 09:17:29;;;;;;;;;;;;;;;;;;4811720;29;19931;-80
2022/03/18 09:19:55;;;;;;;;;;;;;;;;;;4811880;29;20317;-79
2022/03/18 09:22:21;;;;;;;;;;;;;;;;;;4826216;29;19924;-80
2022/03/18 09:24:47;;;;;;;;;;;;;;;;;;4826411;29;19924;-80
2022/03/18 09:27:14;;;;;;;;;;;;;;;;;;4811955;29;19928;-80
2022/03/18 09:29:40;;;;;;;;;;;;;;;;;;4825997;29;20349;-83
2022/03/18 09:32:06;;;;;;;;;;;;;;;;;;4810178;29;19925;-78
2022/03/18 09:34:32;;;;;;;;;;;;;;;;;;4824004;29;19924;-79
2022/03/18 09:36:59;;;;;;;22.60;6.30;;;;;;;;;;4826901;29;19934;-79
2022/03/18 09:39:29;;;;;;;17.73;6.47;;;;;;;;;;4815614;29;20058;-80
2022/03/18 09:41:55;;;;;;;19.30;6.90;;;;;;;;;;4829443;29;20407;-79
2022/03/18 09:44:21;;;;;;;21.00;7.35;;;;;;;;;;4814041;29;20423;-79
2022/03/18 09:46:48;;;;;;;19.15;6.90;;;;;;;;;;4826115;29;20279;-79
2022/03/18 09:49:16;;;;;;;19.80;6.65;;;;;;;;;;4811653;29;20096;-79
2022/03/18 09:51:43;;;;;;;21.40;6.72;;;;;;;;;;4810522;29;20046;-79
2022/03/18 09:54:13;;;;;;;18.17;6.15;;;;;;;;;;4811331;29;20062;-79
2022/03/18 09:56:40;;;;;;;20.10;7.15;;;;;;;;;;4825952;29;20136;-78
2022/03/18 09:59:06;;;;;;;19.77;7.22;;;;;;;;;;4825349;29;20482;-78
2022/03/18 10:01:32;;;;;;;18.92;7.25;;;;;;;;;;4825279;29;20113;-79
2022/03/18 10:04:07;;;;;;;22.92;7.57;;;;;;;;;;4810968;29;20050;-79
2022/03/18 10:06:34;;;;;;;15.48;7.45;;;;;;;;;;4810876;29;20064;-79
2022/03/18 10:09:00;;;;;;;23.17;8.00;;;;;;;;;;4812104;29;20046;-79
2022/03/18 10:11:28;;;;;;;18.20;8.38;;;;;;;;;;4813959;29;20053;-81
2022/03/18 10:13:54;;;;;;;19.88;7.55;;;;;;;;;;4815027;29;20136;-80
2022/03/18 10:16:39;;;;;;;25.08;7.97;;;;;;;;;;4814952;29;20050;-79
2022/03/18 10:19:08;;;;;;;22.05;7.47;;;;;;;;;;4827801;29;20046;-79
2022/03/18 10:21:50;;;;;;;16.83;8.02;;;;;;;;;;4825852;29;20379;-79
2022/03/18 10:24:16;;;;;;;20.40;7.45;;;;;;;;;;4825418;29;20470;-78
2022/03/18 10:26:42;;;;;;;21.52;7.85;;;;;;;;;;4809548;29;20058;-78
2022/03/18 10:29:11;;;;;;;20.70;8.00;;;;;;;;;;4810684;29;20053;-78
2022/03/18 10:31:39;;;;;;;17.30;7.72;;;;;;;;;;4842711;29;20060;-79
2022/03/18 10:37:06;;;;;;;19.15;8.90;;;;;;;;;;4843183;29;20054;-78
2022/03/18 10:39:39;;;;;;;22.38;7.63;;;;;;;;;;4827849;29;20064;-79
2022/03/18 10:42:12;;;;;;;26.02;7.22;;;;;;;;;;4842791;29;20080;-78
2022/03/18 10:44:59;;;;;;;21.63;8.63;;;;;;;;;;4828126;29;20045;-78
2022/03/18 10:47:29;;;;;;;17.45;7.65;;;;;;;;;;4843361;29;20061;-78
2022/03/18 10:50:11;;;;;;;20.00;7.97;;;;;;;;;;4827753;29;20079;-78
2022/03/18 10:52:41;;;;;;;17.55;6.75;;;;;;;;;;4843231;29;20045;-78
2022/03/18 10:55:24;;;;;;;21.10;7.07;;;;;;;;;;4843266;29;20057;-78
2022/03/18 10:57:51;;;;;;;25.30;7.43;;;;;;;;;;4826858;29;20482;-79
2022/03/18 11:00:17;;;;;;;20.13;7.88;;;;;;;;;;4827451;29;20117;-78
2022/03/18 11:02:45;;;;;;;18.08;8.05;;;;;;;;;;4842065;29;20136;-79
2022/03/18 11:05:13;;;;;;;23.13;7.50;;;;;;;;;;4827001;29;20132;-77
2022/03/18 11:07:41;;;;;;;21.95;7.97;;;;;;;;;;4842620;29;20049;-78
2022/03/18 11:12:57;;;;;;;21.73;5.93;;;;;;;;;;4841321;29;20415;-76
2022/03/18 11:15:25;;;;;;;24.85;7.53;;;;;;;;;;4826318;29;20177;-77
2022/03/18 11:17:53;;;;;;;23.67;6.97;;;;;;;;;;4827789;29;20061;-76
2022/03/18 11:20:21;;;;;;;21.52;7.05;;;;;;;;;;4842899;29;20049;-77
2022/03/18 11:22:50;;;;;;;22.48;7.35;;;;;;;;;;4842147;29;20078;-77
2022/03/18 11:25:17;;;;;;;18.30;6.65;;;;;;;;;;4826868;29;20481;-79
2022/03/18 11:27:44;;;;;;;19.50;6.15;;;;;;;;;;4841878;29;20375;-78
2022/03/18 11:30:29;;;;;;;20.90;5.50;;;;;;;;;;4817758;29;20510;-78
2022/03/18 11:33:10;;;;;;;13.73;5.47;;;;;;;;;;4823425;29;20093;-78
2022/03/18 11:35:54;;;;;;;22.30;5.20;;;;;;;;;;4808971;29;20145;-78
2022/03/18 11:38:23;;;;;;;;;;;;;;;;;;4825245;29;20494;-75
2022/03/18 11:40:53;;;;;;;22.95;6.35;;;;;;;;;;4824112;29;20433;-76
2022/03/18 11:43:31;;;;;;;19.98;6.30;;;;;;;;;;4824294;29;20513;-75
2022/03/18 11:46:12;;;;;;;16.60;6.72;;;;;;;;;;4823841;29;20144;-75
2022/03/18 11:48:43;;;;;;;20.02;6.15;;;;;;;;;;4824019;29;20340;-75
2022/03/18 11:51:29;;;;;;;18.92;4.97;;;;;;;;;;4824086;29;20110;-74
2022/03/18 11:54:13;;;;;;;18.58;7.00;;;;;;;;;;4823601;29;20529;-74
2022/03/18 11:56:46;;;;;;;17.00;5.75;;;;;;;;;;4822636;29;20459;-75
2022/03/18 11:59:22;;;;;;;15.95;5.13;;;;;;;;;;4808024;29;20046;-75
2022/03/18 12:01:51;;;;;;;18.38;5.13;;;;;;;;;;4807677;29;20050;-75
2022/03/18 12:04:39;;;;;;;18.08;6.78;;;;;;;;;;4807771;29;20058;-76
2022/03/18 12:07:19;;;;;;;19.60;5.88;;;;;;;;;;4822895;29;20050;-76
2022/03/18 12:09:57;;;;;;;22.80;5.55;;;;;;;;;;4822646;29;20503;-76
2022/03/18 12:12:24;;;;;;;21.15;5.88;;;;;;;;;;4808206;29;20060;-76
2022/03/18 12:14:51;;;;;;;18.88;6.03;;;;;;;;;;4823040;29;20154;-76
2022/03/18 12:17:18;;;;;;;18.95;5.70;;;;;;;;;;4807730;29;20062;-76
2022/03/18 12:19:49;;;;;;;21.10;6.38;;;;;;;;;;4823542;29;20042;-75
2022/03/18 12:22:15;;;;;;;15.60;4.43;;;;;;;;;;4823927;29;20089;-75
2022/03/18 12:24:41;;;;;;;14.30;4.22;;;;;;;;;;4808332;29;20058;-75
2022/03/18 12:27:07;;;;;;;15.02;4.45;;;;;;;;;;4811770;29;20118;-75
2022/03/18 12:29:33;;;;;;;18.27;5.32;;;;;;;;;;4826855;29;20064;-75
2022/03/18 12:32:10;;;;;;;20.35;5.82;;;;;;;;;;4826747;29;20104;-75
2022/03/18 12:34:37;;;;;;;24.25;4.80;;;;;;;;;;4812542;29;20049;-72
2022/03/18 12:37:14;;;;;;;17.08;4.10;;;;;;;;;;4812399;29;20102;-73
2022/03/18 12:39:40;;;;;;;19.48;4.78;;;;;;;;;;4826876;29;20081;-73
2022/03/18 12:42:09;;;;;;;16.63;4.13;;;;;;;;;;4826516;29;20054;-73
2022/03/18 12:44:35;;;;;;;17.33;4.47;;;;;;;;;;4811397;29;20110;-74
2022/03/18 12:47:02;;;;;;;18.55;4.60;;;;;;;;;;4826719;29;20053;-73
2022/03/18 12:49:35;;;;;;;18.88;5.40;;;;;;;;;;4827251;29;20058;-77
2022/03/18 12:52:02;;;;;;;17.83;4.80;;;;;;;;;;4826603;29;20066;-75
2022/03/18 12:54:29;;;;;;;24.75;5.45;;;;;;;;;;4812001;29;20046;-74
2022/03/18 12:56:56;;;;;;;24.30;4.65;;;;;;;;;;4810852;29;20058;-75
2022/03/18 12:59:22;;;;;;;18.27;5.25;;;;;;;;;;4810904;29;20076;-75
2022/03/18 13:01:52;;;;;;;24.00;5.63;;;;;;;;;;4825647;29;20053;-75
2022/03/18 13:04:21;;;;;;;22.85;5.32;;;;;;;;;;4810889;29;20054;-74
2022/03/18 13:06:56;;;;;;;19.38;4.82;;;;;;;;;;4811016;29;20061;-74
2022/03/18 13:09:22;;;;;;;19.48;4.95;;;;;;;;;;4826821;29;20054;-74
2022/03/18 13:11:49;;;;;;;17.90;5.53;;;;;;;;;;4826186;29;20108;-75
2022/03/18 13:14:28;;;;;;;25.08;6.18;;;;;;;;;;4811475;29;20065;-74
2022/03/18 13:16:54;;;;;;;16.90;5.40;;;;;;;;;;4826614;29;20134;-74
2022/03/18 13:19:35;;;;;;;21.38;6.07;;;;;;;;;;4826540;29;20052;-74
2022/03/18 13:22:02;;;;;;;19.98;5.65;;;;;;;;;;4825956;29;20046;-75
2022/03/18 13:24:28;;;;;;;23.83;6.43;;;;;;;;;;4810912;29;20112;-75
2022/03/18 13:26:54;;;;;;;24.75;5.78;;;;;;;;;;4825252;29;20383;-75
2022/03/18 13:32:50;;;;;;;23.80;5.38;;;;;;;;;;4812863;29;20081;-75
2022/03/18 13:34:56;;;;;;;20.95;5.25;;;;;;;;;;4844260;29;20056;-74
2022/03/18 13:37:22;;;;;;;18.25;4.95;;;;;;;;;;4828743;29;20052;-75
2022/03/18 13:39:51;;;;;;;18.17;4.60;;;;;;;;;;4843976;29;20553;-75
2022/03/18 13:42:25;;;;;;;19.33;4.40;;;;;;;;;;4828855;29;20057;-74
2022/03/18 13:44:52;;;;;;;19.80;4.43;;;;;;;;;;4844164;29;20076;-75
2022/03/18 13:47:18;;;;;;;21.02;4.40;;;;;;;;;;4829144;29;20053;-74
2022/03/18 13:50:14;;;;;;;18.55;5.03;;;;;;;;;;4829125;29;20151;-75
2022/03/18 13:52:40;;;;;;;22.95;4.80;;;;;;;;;;4825428;29;20095;-75
2022/03/18 13:55:07;;;;;;;20.67;4.90;;;;;;;;;;4843992;29;20054;-75
2022/03/18 13:57:47;;;;;;;22.95;4.82;;;;;;;;;;4843269;29;20063;-75
2022/03/18 14:00:24;;;;;;;22.88;3.95;;;;;;;;;;4843266;29;20182;-75
2022/03/18 14:02:59;;;;;;;16.95;4.63;;;;;;;;;;4827875;29;20049;-75
2022/03/18 14:05:25;;;;;;;17.38;4.07;;;;;;;;;;4844389;29;20100;-74
2022/03/18 14:07:51;;;;;;;22.63;4.38;;;;;;;;;;4860594;29;20054;-73
2022/03/18 14:10:19;;;;;;;21.35;4.35;;;;;;;;;;4843670;29;20709;-74
2022/03/18 14:13:00;;;;;;;23.40;4.75;;;;;;;;;;4843379;29;20113;-74
2022/03/18 14:15:37;;;;;;;25.98;4.68;;;;;;;;;;4827591;29;20403;-74
2022/03/18 14:18:10;;;;;;;21.92;4.28;;;;;;;;;;4843020;29;20142;-76
2022/03/18 14:20:59;;;;;;;18.38;4.93;;;;;;;;;;4843109;29;20056;-78
2022/03/18 14:23:28;;;;;;;17.55;3.72;;;;;;;;;;4827514;29;20109;-71
2022/03/18 14:25:54;;;;;;;17.88;3.45;;;;;;;;;;4859394;29;20068;-73
2022/03/18 14:28:22;;;;;;;17.42;4.50;;;;;;;;;;4842814;29;20049;-72
2022/03/18 14:30:48;;;;;;;19.20;3.47;;;;;;;;;;4826126;29;20147;-73
2022/03/18 14:33:15;;;;;;;16.90;3.95;;;;;;;;;;4842925;29;20493;-74
2022/03/18 14:35:41;;;;;;;20.60;3.97;;;;;;;;;;4843156;29;20057;-78
2022/03/18 14:38:08;;;;;;;17.73;3.53;;;;;;;;;;4828065;29;20057;-77
2022/03/18 14:40:37;;;;;;;16.77;3.88;;;;;;;;;;4828212;29;20117;-78
2022/03/18 14:43:04;;;;;;;20.50;3.75;;;;;;;;;;4842813;29;20056;-78
2022/03/18 14:45:30;;;;;;;18.83;4.03;;;;;;;;;;4828077;29;20045;-78
2022/03/18 14:47:56;;;;;;;16.80;4.25;;;;;;;;;;4826960;29;20193;-78
2022/03/18 14:50:22;;;;;;;17.42;3.70;;;;;;;;;;4841666;29;20045;-77
2022/03/18 14:52:48;;;;;;;19.17;4.03;;;;;;;;;;4827294;29;20049;-78
2022/03/18 14:58:01;;;;;;;18.05;3.70;;;;;;;;;;4829484;29;20057;-79
2022/03/18 15:00:29;;;;;;;19.30;3.22;;;;;;;;;;4827364;29;20060;-79
2022/03/18 15:02:55;;;;;;;22.88;4.07;;;;;;;;;;4841804;29;20115;-79
2022/03/18 15:05:21;;;;;;;24.33;3.65;;;;;;;;;;4827726;29;20474;-78
2022/03/18 15:07:47;;;;;;;19.42;3.47;;;;;;;;;;4842390;29;20056;-79
2022/03/18 15:10:13;;;;;;;16.48;2.75;;;;;;;;;;4842429;29;20233;-77
2022/03/18 15:12:39;;;;;;;14.35;2.88;;;;;;;;;;4827769;29;20133;-78
2022/03/18 15:15:06;;;;;;;23.63;5.13;;;;;;;;;;4827033;29;20174;-78